Lineville, Iowa
Current Conditions -  °F | °C
As of 2:53 PM on Saturday 25 Oct 2014 (Local Time) from KLWD Reporting Station
Clear Clear  
Wind Chill: 74°   Ceiling: Unl
Heat Index: 74°   Visibility: 10mi
Dew Point: 46°   Wind: 5mph
Humidity: 37%   Direction: 80°E
Pressure: 30.06"   Gusts: NA
Location:  40.58°N, 93.52°W
Report Text: KLWD 251953Z AUTO 08004KT 10SM CLR 23/08 A3006 RMK AO2 SLP175 T02330078
Loading
Personal Weather Stations






























Interactive Weather Map
Tropical Storm Tracking
New forecast layout! Learn more

10-Day Weather Forecast

Advertisements
Track Severe Weather on mobile